sensor_id;sensor_type;location;lat;lon;timestamp;pressure;altitude;pressure_sealevel;temperature;humidity
83691;BME280;73671;43.220;0.064;2024-01-15T00:00:23;97563.56;;;10.64;71.82
83691;BME280;73671;43.220;0.064;2024-01-15T00:02:49;97565.66;;;10.60;72.28
83691;BME280;73671;43.220;0.064;2024-01-15T00:05:14;97564.16;;;10.59;72.07
83691;BME280;73671;43.220;0.064;2024-01-15T00:07:40;97563.50;;;10.55;71.61
83691;BME280;73671;43.220;0.064;2024-01-15T00:10:05;97569.41;;;10.53;72.17
83691;BME280;73671;43.220;0.064;2024-01-15T00:12:31;97567.44;;;10.54;71.87
83691;BME280;73671;43.220;0.064;2024-01-15T00:14:56;97560.47;;;10.53;71.89
83691;BME280;73671;43.220;0.064;2024-01-15T00:17:22;97563.50;;;10.55;71.95
83691;BME280;73671;43.220;0.064;2024-01-15T00:19:47;97563.50;;;10.55;72.04
83691;BME280;73671;43.220;0.064;2024-01-15T00:22:12;97558.81;;;10.55;71.80
83691;BME280;73671;43.220;0.064;2024-01-15T00:24:38;97565.81;;;10.56;71.67
83691;BME280;73671;43.220;0.064;2024-01-15T00:27:03;97575.94;;;10.56;71.61
83691;BME280;73671;43.220;0.064;2024-01-15T00:29:29;97566.56;;;10.57;71.34
83691;BME280;73671;43.220;0.064;2024-01-15T00:31:54;97560.34;;;10.56;71.69
83691;BME280;73671;43.220;0.064;2024-01-15T00:34:19;97555.59;;;10.48;72.29
83691;BME280;73671;43.220;0.064;2024-01-15T00:36:45;97553.03;;;10.44;72.37
83691;BME280;73671;43.220;0.064;2024-01-15T00:39:10;97557.69;;;10.44;71.85
83691;BME280;73671;43.220;0.064;2024-01-15T00:41:36;97557.63;;;10.34;72.22
83691;BME280;73671;43.220;0.064;2024-01-15T00:44:01;97546.78;;;10.22;72.59
83691;BME280;73671;43.220;0.064;2024-01-15T00:46:28;97540.84;;;10.14;72.82
83691;BME280;73671;43.220;0.064;2024-01-15T00:48:53;97537.66;;;10.15;72.31
83691;BME280;73671;43.220;0.064;2024-01-15T00:51:19;97540.28;;;10.19;73.02
83691;BME280;73671;43.220;0.064;2024-01-15T00:53:44;97542.09;;;10.22;72.24
83691;BME280;73671;43.220;0.064;2024-01-15T00:56:09;97529.56;;;10.25;72.30
83691;BME280;73671;43.220;0.064;2024-01-15T00:58:35;97527.91;;;10.27;71.96
83691;BME280;73671;43.220;0.064;2024-01-15T01:01:00;97521.88;;;10.23;71.91
83691;BME280;73671;43.220;0.064;2024-01-15T01:03:25;97523.63;;;10.17;72.90
83691;BME280;73671;43.220;0.064;2024-01-15T01:05:51;97527.00;;;10.21;72.38
83691;BME280;73671;43.220;0.064;2024-01-15T01:08:16;97525.16;;;10.18;72.47
83691;BME280;73671;43.220;0.064;2024-01-15T01:10:42;97526.03;;;10.15;72.49
83691;BME280;73671;43.220;0.064;2024-01-15T01:13:10;97526.69;;;10.19;72.23
83691;BME280;73671;43.220;0.064;2024-01-15T01:15:35;97525.03;;;10.22;72.09
83691;BME280;73671;43.220;0.064;2024-01-15T01:18:01;97519.47;;;10.25;71.66
83691;BME280;73671;43.220;0.064;2024-01-15T01:20:26;97512.38;;;10.28;71.74
83691;BME280;73671;43.220;0.064;2024-01-15T01:22:52;97507.94;;;10.21;71.61
83691;BME280;73671;43.220;0.064;2024-01-15T01:25:17;97509.66;;;10.06;72.51
83691;BME280;73671;43.220;0.064;2024-01-15T01:27:42;97507.31;;;9.95;73.06
83691;BME280;73671;43.220;0.064;2024-01-15T01:30:08;97503.28;;;10.00;73.16
83691;BME280;73671;43.220;0.064;2024-01-15T01:32:34;97505.91;;;9.90;73.17
83691;BME280;73671;43.220;0.064;2024-01-15T01:34:59;97502.16;;;9.75;74.35
83691;BME280;73671;43.220;0.064;2024-01-15T01:37:24;97500.00;;;9.70;74.49
83691;BME280;73671;43.220;0.064;2024-01-15T01:39:50;97493.53;;;9.54;75.25
83691;BME280;73671;43.220;0.064;2024-01-15T01:42:15;97501.28;;;9.78;74.07
83691;BME280;73671;43.220;0.064;2024-01-15T01:44:40;97500.47;;;9.90;73.87
83691;BME280;73671;43.220;0.064;2024-01-15T01:47:06;97485.66;;;9.91;73.69
83691;BME280;73671;43.220;0.064;2024-01-15T01:49:32;97489.03;;;9.95;73.05
83691;BME280;73671;43.220;0.064;2024-01-15T01:51:59;97479.97;;;9.98;73.39
83691;BME280;73671;43.220;0.064;2024-01-15T01:54:29;97481.13;;;9.88;74.18
83691;BME280;73671;43.220;0.064;2024-01-15T01:56:55;97483.53;;;9.86;73.60
83691;BME280;73671;43.220;0.064;2024-01-15T01:59:22;97474.22;;;9.96;73.46
83691;BME280;73671;43.220;0.064;2024-01-15T02:01:48;97471.22;;;9.94;73.64
83691;BME280;73671;43.220;0.064;2024-01-15T02:04:15;97471.50;;;9.96;73.38
83691;BME280;73671;43.220;0.064;2024-01-15T02:06:41;97458.63;;;9.88;74.03
83691;BME280;73671;43.220;0.064;2024-01-15T02:09:08;97465.00;;;9.94;73.51
83691;BME280;73671;43.220;0.064;2024-01-15T02:11:34;97465.69;;;9.85;74.34
83691;BME280;73671;43.220;0.064;2024-01-15T02:13:59;97472.41;;;9.93;74.14
83691;BME280;73671;43.220;0.064;2024-01-15T02:16:25;97479.03;;;9.92;74.12
83691;BME280;73671;43.220;0.064;2024-01-15T02:18:50;97484.56;;;10.02;73.57
83691;BME280;73671;43.220;0.064;2024-01-15T02:21:15;97479.88;;;10.02;73.55
83691;BME280;73671;43.220;0.064;2024-01-15T02:23:41;97478.84;;;10.09;73.17
83691;BME280;73671;43.220;0.064;2024-01-15T02:26:07;97474.03;;;10.13;72.93
83691;BME280;73671;43.220;0.064;2024-01-15T02:28:33;97472.53;;;10.12;72.99
83691;BME280;73671;43.220;0.064;2024-01-15T02:30:59;97468.94;;;9.93;73.95
83691;BME280;73671;43.220;0.064;2024-01-15T02:33:25;97467.53;;;9.88;74.15
83691;BME280;73671;43.220;0.064;2024-01-15T02:35:50;97457.22;;;9.83;74.18
83691;BME280;73671;43.220;0.064;2024-01-15T02:38:16;97461.09;;;9.73;74.45
83691;BME280;73671;43.220;0.064;2024-01-15T02:40:42;97454.84;;;9.85;74.12
83691;BME280;73671;43.220;0.064;2024-01-15T02:43:08;97450.00;;;9.89;73.57
83691;BME280;73671;43.220;0.064;2024-01-15T02:45:33;97446.41;;;9.92;73.56
83691;BME280;73671;43.220;0.064;2024-01-15T02:47:58;97436.28;;;9.93;73.32
83691;BME280;73671;43.220;0.064;2024-01-15T02:50:24;97438.25;;;9.92;73.39
83691;BME280;73671;43.220;0.064;2024-01-15T02:52:49;97431.44;;;9.66;74.78
83691;BME280;73671;43.220;0.064;2024-01-15T02:55:14;97424.97;;;9.50;74.36
83691;BME280;73671;43.220;0.064;2024-01-15T02:57:40;97417.78;;;9.57;74.62
83691;BME280;73671;43.220;0.064;2024-01-15T03:00:06;97419.59;;;9.60;74.71
83691;BME280;73671;43.220;0.064;2024-01-15T03:02:32;97407.53;;;9.61;74.51
83691;BME280;73671;43.220;0.064;2024-01-15T03:04:58;97406.66;;;9.64;74.32
83691;BME280;73671;43.220;0.064;2024-01-15T03:07:23;97408.41;;;9.36;75.32
83691;BME280;73671;43.220;0.064;2024-01-15T03:09:48;97397.53;;;9.36;75.63
83691;BME280;73671;43.220;0.064;2024-01-15T03:12:14;97403.72;;;9.36;75.01
83691;BME280;73671;43.220;0.064;2024-01-15T03:14:39;97399.34;;;9.39;74.50
83691;BME280;73671;43.220;0.064;2024-01-15T03:17:04;97405.88;;;9.41;74.52
83691;BME280;73671;43.220;0.064;2024-01-15T03:19:30;97397.84;;;9.38;74.42
83691;BME280;73671;43.220;0.064;2024-01-15T03:21:56;97394.56;;;9.43;74.39
83691;BME280;73671;43.220;0.064;2024-01-15T03:24:21;97389.06;;;9.55;73.48
83691;BME280;73671;43.220;0.064;2024-01-15T03:26:46;97385.78;;;9.61;73.15
83691;BME280;73671;43.220;0.064;2024-01-15T03:29:12;97379.16;;;9.62;73.16
83691;BME280;73671;43.220;0.064;2024-01-15T03:31:37;97385.66;;;9.64;72.78
83691;BME280;73671;43.220;0.064;2024-01-15T03:34:03;97382.19;;;9.64;72.68
83691;BME280;73671;43.220;0.064;2024-01-15T03:36:28;97377.06;;;9.66;72.39
83691;BME280;73671;43.220;0.064;2024-01-15T03:38:54;97373.16;;;9.67;72.25
83691;BME280;73671;43.220;0.064;2024-01-15T03:41:19;97377.06;;;9.66;71.86
83691;BME280;73671;43.220;0.064;2024-01-15T03:43:45;97371.94;;;9.68;72.00
83691;BME280;73671;43.220;0.064;2024-01-15T03:46:10;97363.78;;;9.68;72.00
83691;BME280;73671;43.220;0.064;2024-01-15T03:48:35;97366.06;;;9.69;71.87
83691;BME280;73671;43.220;0.064;2024-01-15T03:51:01;97356.84;;;9.67;71.73
83691;BME280;73671;43.220;0.064;2024-01-15T03:53:26;97359.56;;;9.67;72.00
83691;BME280;73671;43.220;0.064;2024-01-15T03:55:52;97363.78;;;9.68;71.88
83691;BME280;73671;43.220;0.064;2024-01-15T03:58:17;97366.97;;;9.66;71.83
83691;BME280;73671;43.220;0.064;2024-01-15T04:00:43;97360.78;;;9.66;71.75
83691;BME280;73671;43.220;0.064;2024-01-15T04:03:09;97357.72;;;9.64;72.22
83691;BME280;73671;43.220;0.064;2024-01-15T04:05:35;97341.63;;;9.47;72.36
83691;BME280;73671;43.220;0.064;2024-01-15T04:08:00;97342.06;;;9.46;72.88
83691;BME280;73671;43.220;0.064;2024-01-15T04:10:26;97338.91;;;9.47;72.86
83691;BME280;73671;43.220;0.064;2024-01-15T04:12:51;97346.16;;;9.50;72.52
83691;BME280;73671;43.220;0.064;2024-01-15T04:15:17;97346.47;;;9.52;72.30
83691;BME280;73671;43.220;0.064;2024-01-15T04:17:42;97342.56;;;9.53;72.09
83691;BME280;73671;43.220;0.064;2024-01-15T04:20:08;97334.97;;;9.48;72.08
83691;BME280;73671;43.220;0.064;2024-01-15T04:22:35;97333.47;;;9.47;72.49
83691;BME280;73671;43.220;0.064;2024-01-15T04:25:01;97328.66;;;9.51;72.21
83691;BME280;73671;43.220;0.064;2024-01-15T04:27:26;97326.25;;;9.53;72.01
83691;BME280;73671;43.220;0.064;2024-01-15T04:29:52;97324.75;;;9.52;72.10
83691;BME280;73671;43.220;0.064;2024-01-15T04:32:18;97322.34;;;9.54;71.77
83691;BME280;73671;43.220;0.064;2024-01-15T04:34:43;97313.88;;;9.52;72.26
83691;BME280;73671;43.220;0.064;2024-01-15T04:37:09;97310.84;;;9.50;72.26
83691;BME280;73671;43.220;0.064;2024-01-15T04:39:34;97320.81;;;9.53;72.31
83691;BME280;73671;43.220;0.064;2024-01-15T04:41:59;97313.56;;;9.50;72.18
83691;BME280;73671;43.220;0.064;2024-01-15T04:44:25;97312.34;;;9.51;72.17
83691;BME280;73671;43.220;0.064;2024-01-15T04:46:50;97307.06;;;9.48;72.39
83691;BME280;73671;43.220;0.064;2024-01-15T04:49:15;97309.84;;;9.35;73.12
83691;BME280;73671;43.220;0.064;2024-01-15T04:51:41;97305.03;;;9.39;72.66
83691;BME280;73671;43.220;0.064;2024-01-15T04:54:06;97300.97;;;9.44;72.77
83691;BME280;73671;43.220;0.064;2024-01-15T04:56:31;97298.59;;;9.46;72.16
83691;BME280;73671;43.220;0.064;2024-01-15T04:58:57;97300.22;;;9.43;72.33
83691;BME280;73671;43.220;0.064;2024-01-15T05:01:22;97287.34;;;9.34;73.00
83691;BME280;73671;43.220;0.064;2024-01-15T05:03:48;97297.34;;;9.38;72.56
83691;BME280;73671;43.220;0.064;2024-01-15T05:06:14;97297.44;;;9.34;72.75
83691;BME280;73671;43.220;0.064;2024-01-15T05:08:40;97295.19;;;9.32;73.11
83691;BME280;73671;43.220;0.064;2024-01-15T05:11:05;97290.19;;;9.31;73.31
83691;BME280;73671;43.220;0.064;2024-01-15T05:13:30;97284.50;;;9.38;73.08
83691;BME280;73671;43.220;0.064;2024-01-15T05:15:55;97286.47;;;9.38;72.72
83691;BME280;73671;43.220;0.064;2024-01-15T05:18:21;97286.31;;;9.41;72.74
83691;BME280;73671;43.220;0.064;2024-01-15T05:20:47;97290.84;;;9.44;72.11
83691;BME280;73671;43.220;0.064;2024-01-15T05:23:12;97286.31;;;9.41;72.43
83691;BME280;73671;43.220;0.064;2024-01-15T05:25:37;97279.78;;;9.07;73.77
83691;BME280;73671;43.220;0.064;2024-01-15T05:28:05;97274.44;;;9.04;73.31
83691;BME280;73671;43.220;0.064;2024-01-15T05:30:30;97279.44;;;8.83;74.54
83691;BME280;73671;43.220;0.064;2024-01-15T05:32:55;97278.59;;;8.74;74.59
83691;BME280;73671;43.220;0.064;2024-01-15T05:35:22;97280.50;;;8.86;73.94
83691;BME280;73671;43.220;0.064;2024-01-15T05:37:47;97284.47;;;8.94;73.75
83691;BME280;73671;43.220;0.064;2024-01-15T05:40:13;97283.69;;;9.06;73.22
83691;BME280;73671;43.220;0.064;2024-01-15T05:42:39;97276.63;;;9.09;72.75
83691;BME280;73671;43.220;0.064;2024-01-15T05:45:05;97277.31;;;9.00;73.19
83691;BME280;73671;43.220;0.064;2024-01-15T05:47:31;97268.25;;;9.03;72.77
83691;BME280;73671;43.220;0.064;2024-01-15T05:49:57;97280.25;;;8.93;73.33
83691;BME280;73671;43.220;0.064;2024-01-15T05:52:23;97281.41;;;8.83;73.79
83691;BME280;73671;43.220;0.064;2024-01-15T05:54:49;97264.06;;;8.67;74.50
83691;BME280;73671;43.220;0.064;2024-01-15T05:57:14;97262.94;;;8.78;73.64
83691;BME280;73671;43.220;0.064;2024-01-15T05:59:40;97261.25;;;8.93;73.90
83691;BME280;73671;43.220;0.064;2024-01-15T06:02:05;97259.47;;;8.99;73.16
83691;BME280;73671;43.220;0.064;2024-01-15T06:04:30;97254.38;;;9.01;73.06
83691;BME280;73671;43.220;0.064;2024-01-15T06:06:56;97252.44;;;9.02;72.75
83691;BME280;73671;43.220;0.064;2024-01-15T06:09:21;97236.56;;;9.00;72.60
83691;BME280;73671;43.220;0.064;2024-01-15T06:11:46;97234.28;;;8.99;73.01
83691;BME280;73671;43.220;0.064;2024-01-15T06:14:12;97234.19;;;9.02;72.92
83691;BME280;73671;43.220;0.064;2024-01-15T06:16:37;97235.69;;;9.03;73.47
83691;BME280;73671;43.220;0.064;2024-01-15T06:19:02;97228.75;;;9.02;73.92
83691;BME280;73671;43.220;0.064;2024-01-15T06:21:28;97235.69;;;9.03;73.96
83691;BME280;73671;43.220;0.064;2024-01-15T06:23:54;97235.44;;;9.10;73.70
83691;BME280;73671;43.220;0.064;2024-01-15T06:26:21;97239.84;;;9.17;73.39
83691;BME280;73671;43.220;0.064;2024-01-15T06:28:47;97235.50;;;9.20;73.10
83691;BME280;73671;43.220;0.064;2024-01-15T06:31:12;97230.06;;;9.20;73.15
83691;BME280;73671;43.220;0.064;2024-01-15T06:33:38;97242.44;;;9.21;72.62
83691;BME280;73671;43.220;0.064;2024-01-15T06:36:04;97233.41;;;9.24;72.76
83691;BME280;73671;43.220;0.064;2024-01-15T06:38:30;97231.78;;;9.04;73.35
83691;BME280;73671;43.220;0.064;2024-01-15T06:40:55;97236.81;;;8.93;74.28
83691;BME280;73671;43.220;0.064;2024-01-15T06:43:21;97232.66;;;9.01;73.82
83691;BME280;73671;43.220;0.064;2024-01-15T06:45:47;97235.09;;;9.08;74.07
83691;BME280;73671;43.220;0.064;2024-01-15T06:48:12;97233.28;;;9.05;74.28
83691;BME280;73671;43.220;0.064;2024-01-15T06:50:44;97237.28;;;9.13;73.54
83691;BME280;73671;43.220;0.064;2024-01-15T06:53:10;97237.78;;;9.21;73.89
83691;BME280;73671;43.220;0.064;2024-01-15T06:55:35;97240.34;;;9.25;73.13
83691;BME280;73671;43.220;0.064;2024-01-15T06:58:00;97240.97;;;9.29;73.16
83691;BME280;73671;43.220;0.064;2024-01-15T07:00:26;97239.34;;;9.31;72.70
83691;BME280;73671;43.220;0.064;2024-01-15T07:02:52;97243.88;;;9.34;73.12
83691;BME280;73671;43.220;0.064;2024-01-15T07:05:18;97238.44;;;9.34;72.84
83691;BME280;73671;43.220;0.064;2024-01-15T07:07:43;97238.19;;;9.20;73.90
83691;BME280;73671;43.220;0.064;2024-01-15T07:10:09;97226.00;;;9.24;73.45
83691;BME280;73671;43.220;0.064;2024-01-15T07:12:35;97231.59;;;9.21;73.75
83691;BME280;73671;43.220;0.064;2024-01-15T07:15:00;97226.16;;;9.21;73.07
83691;BME280;73671;43.220;0.064;2024-01-15T07:17:27;97220.25;;;9.22;73.45
83691;BME280;73671;43.220;0.064;2024-01-15T07:19:52;97210.72;;;9.18;72.96
83691;BME280;73671;43.220;0.064;2024-01-15T07:22:17;97214.19;;;9.18;72.88
83691;BME280;73671;43.220;0.064;2024-01-15T07:24:43;97207.16;;;9.21;72.86
83691;BME280;73671;43.220;0.064;2024-01-15T07:27:09;97217.38;;;9.17;73.41
83691;BME280;73671;43.220;0.064;2024-01-15T07:29:35;97214.97;;;9.19;72.86
83691;BME280;73671;43.220;0.064;2024-01-15T07:32:04;97211.78;;;9.20;73.27
83691;BME280;73671;43.220;0.064;2024-01-15T07:34:29;97213.44;;;9.18;73.14
83691;BME280;73671;43.220;0.064;2024-01-15T07:36:55;97219.78;;;9.15;73.05
83691;BME280;73671;43.220;0.064;2024-01-15T07:39:21;97215.84;;;9.16;72.28
83691;BME280;73671;43.220;0.064;2024-01-15T07:41:48;97220.41;;;9.19;72.83
83691;BME280;73671;43.220;0.064;2024-01-15T07:44:14;97218.28;;;9.13;72.86
83691;BME280;73671;43.220;0.064;2024-01-15T07:46:40;97227.03;;;9.18;72.70
83691;BME280;73671;43.220;0.064;2024-01-15T07:49:08;97235.06;;;9.21;72.54
83691;BME280;73671;43.220;0.064;2024-01-15T07:51:34;97235.38;;;9.23;72.30
83691;BME280;73671;43.220;0.064;2024-01-15T07:53:59;97240.59;;;9.18;72.68
83691;BME280;73671;43.220;0.064;2024-01-15T07:56:25;97234.75;;;9.19;72.26
83691;BME280;73671;43.220;0.064;2024-01-15T07:58:52;97234.31;;;9.21;72.14
83691;BME280;73671;43.220;0.064;2024-01-15T08:01:17;97240.03;;;9.23;72.39
83691;BME280;73671;43.220;0.064;2024-01-15T08:03:43;97244.53;;;9.17;72.36
83691;BME280;73671;43.220;0.064;2024-01-15T08:06:08;97243.53;;;9.23;72.35
83691;BME280;73671;43.220;0.064;2024-01-15T08:08:35;97236.56;;;9.22;72.41
83691;BME280;73671;43.220;0.064;2024-01-15T08:11:00;97247.88;;;9.21;73.05
83691;BME280;73671;43.220;0.064;2024-01-15T08:13:26;97246.78;;;9.18;73.08
83691;BME280;73671;43.220;0.064;2024-01-15T08:15:52;97237.56;;;9.16;73.32
83691;BME280;73671;43.220;0.064;2024-01-15T08:18:17;97235.16;;;9.18;73.34
83691;BME280;73671;43.220;0.064;2024-01-15T08:20:42;97237.94;;;9.27;73.59
83691;BME280;73671;43.220;0.064;2024-01-15T08:23:08;97238.31;;;9.38;72.77
83691;BME280;73671;43.220;0.064;2024-01-15T08:25:34;97251.91;;;9.38;73.67
83691;BME280;73671;43.220;0.064;2024-01-15T08:28:00;97253.97;;;9.34;73.74
83691;BME280;73671;43.220;0.064;2024-01-15T08:30:25;97246.91;;;9.37;73.92
83691;BME280;73671;43.220;0.064;2024-01-15T08:32:53;97256.50;;;9.50;73.49
83691;BME280;73671;43.220;0.064;2024-01-15T08:35:19;97258.34;;;9.63;73.32
83691;BME280;73671;43.220;0.064;2024-01-15T08:37:54;97273.53;;;9.73;73.26
83691;BME280;73671;43.220;0.064;2024-01-15T08:40:19;97266.91;;;9.83;72.98
83691;BME280;73671;43.220;0.064;2024-01-15T08:42:44;97265.13;;;9.89;73.05
83691;BME280;73671;43.220;0.064;2024-01-15T08:45:14;97269.41;;;10.00;73.01
83691;BME280;73671;43.220;0.064;2024-01-15T08:47:39;97268.78;;;9.95;73.35
83691;BME280;73671;43.220;0.064;2024-01-15T08:50:05;97270.81;;;9.82;74.46
83691;BME280;73671;43.220;0.064;2024-01-15T08:52:31;97263.28;;;9.86;74.47
83691;BME280;73671;43.220;0.064;2024-01-15T08:54:57;97264.59;;;10.04;73.70
83691;BME280;73671;43.220;0.064;2024-01-15T08:57:22;97279.56;;;10.17;73.05
83691;BME280;73671;43.220;0.064;2024-01-15T08:59:48;97281.56;;;10.26;73.09
83691;BME280;73671;43.220;0.064;2024-01-15T09:02:13;97280.56;;;10.33;73.16
83691;BME280;73671;43.220;0.064;2024-01-15T09:04:39;97278.31;;;10.40;73.45
83691;BME280;73671;43.220;0.064;2024-01-15T09:07:04;97277.25;;;10.38;73.48
83691;BME280;73671;43.220;0.064;2024-01-15T09:09:30;97277.38;;;10.34;73.71
83691;BME280;73671;43.220;0.064;2024-01-15T09:11:55;97281.47;;;10.48;73.40
83691;BME280;73671;43.220;0.064;2024-01-15T09:14:21;97274.09;;;10.58;73.41
83691;BME280;73671;43.220;0.064;2024-01-15T09:16:47;97277.13;;;10.60;73.39
83691;BME280;73671;43.220;0.064;2024-01-15T09:19:13;97267.44;;;10.59;73.44
83691;BME280;73671;43.220;0.064;2024-01-15T09:21:38;97283.78;;;10.68;73.33
83691;BME280;73671;43.220;0.064;2024-01-15T09:24:04;97281.84;;;10.78;73.22
83691;BME280;73671;43.220;0.064;2024-01-15T09:26:29;97289.22;;;10.87;72.96
83691;BME280;73671;43.220;0.064;2024-01-15T09:28:55;97290.03;;;10.96;73.44
83691;BME280;73671;43.220;0.064;2024-01-15T09:31:20;97296.53;;;10.99;73.06
83691;BME280;73671;43.220;0.064;2024-01-15T09:33:46;97297.28;;;11.09;73.50
83691;BME280;73671;43.220;0.064;2024-01-15T09:36:12;97305.28;;;11.12;73.52
83691;BME280;73671;43.220;0.064;2024-01-15T09:38:37;97307.41;;;11.17;73.55
83691;BME280;73671;43.220;0.064;2024-01-15T09:41:03;97306.50;;;11.20;73.30
83691;BME280;73671;43.220;0.064;2024-01-15T09:43:28;97303.16;;;11.25;73.39
83691;BME280;73671;43.220;0.064;2024-01-15T09:45:54;97303.78;;;11.30;72.98
83691;BME280;73671;43.220;0.064;2024-01-15T09:48:20;97298.75;;;11.37;72.95
83691;BME280;73671;43.220;0.064;2024-01-15T09:50:46;97301.91;;;11.45;72.90
83691;BME280;73671;43.220;0.064;2024-01-15T09:53:11;97306.75;;;11.50;73.47
83691;BME280;73671;43.220;0.064;2024-01-15T09:55:39;97313.56;;;11.55;73.56
83691;BME280;73671;43.220;0.064;2024-01-15T09:58:04;97314.31;;;11.64;73.08
83691;BME280;73671;43.220;0.064;2024-01-15T10:00:30;97306.72;;;11.68;73.62
83691;BME280;73671;43.220;0.064;2024-01-15T10:02:58;97318.22;;;11.73;73.55
83691;BME280;73671;43.220;0.064;2024-01-15T10:05:26;97303.56;;;11.61;74.94
83691;BME280;73671;43.220;0.064;2024-01-15T10:07:53;97305.66;;;11.75;74.02
83691;BME280;73671;43.220;0.064;2024-01-15T10:10:19;97313.50;;;11.92;74.13
83691;BME280;73671;43.220;0.064;2024-01-15T10:12:47;97312.09;;;12.05;73.40
83691;BME280;73671;43.220;0.064;2024-01-15T10:15:12;97304.78;;;12.12;73.40
83691;BME280;73671;43.220;0.064;2024-01-15T10:17:38;97307.47;;;12.21;73.89
83691;BME280;73671;43.220;0.064;2024-01-15T10:20:09;97308.81;;;12.25;73.67
83691;BME280;73671;43.220;0.064;2024-01-15T10:22:35;97293.03;;;12.29;73.36
83691;BME280;73671;43.220;0.064;2024-01-15T10:25:03;97300.75;;;12.31;73.29
83691;BME280;73671;43.220;0.064;2024-01-15T10:27:29;97301.97;;;12.30;74.00
83691;BME280;73671;43.220;0.064;2024-01-15T10:29:59;97301.09;;;12.24;73.95
83691;BME280;73671;43.220;0.064;2024-01-15T10:32:25;97293.19;;;12.26;74.30
83691;BME280;73671;43.220;0.064;2024-01-15T10:34:52;97309.22;;;12.33;73.88
83691;BME280;73671;43.220;0.064;2024-01-15T10:37:18;97297.38;;;12.36;73.84
83691;BME280;73671;43.220;0.064;2024-01-15T10:39:46;97300.41;;;12.38;73.67
83691;BME280;73671;43.220;0.064;2024-01-15T10:42:11;97301.94;;;12.39;73.48
83691;BME280;73671;43.220;0.064;2024-01-15T10:44:37;97303.63;;;12.37;74.32
83691;BME280;73671;43.220;0.064;2024-01-15T10:47:03;97302.97;;;12.42;74.54
83691;BME280;73671;43.220;0.064;2024-01-15T10:49:29;97301.25;;;12.54;74.43
83691;BME280;73671;43.220;0.064;2024-01-15T10:51:56;97298.50;;;12.54;74.23
83691;BME280;73671;43.220;0.064;2024-01-15T10:54:22;97292.06;;;12.66;74.01
83691;BME280;73671;43.220;0.064;2024-01-15T10:56:50;97285.66;;;12.69;73.12
83691;BME280;73671;43.220;0.064;2024-01-15T10:59:16;97288.09;;;12.67;72.25
83691;BME280;73671;43.220;0.064;2024-01-15T11:01:42;97288.91;;;12.82;73.42
83691;BME280;73671;43.220;0.064;2024-01-15T11:04:08;97289.50;;;12.86;72.36
83691;BME280;73671;43.220;0.064;2024-01-15T11:06:44;97291.06;;;12.78;72.48
83691;BME280;73671;43.220;0.064;2024-01-15T11:09:11;97291.00;;;12.87;72.18
83691;BME280;73671;43.220;0.064;2024-01-15T11:11:43;97280.94;;;12.93;72.33
83691;BME280;73671;43.220;0.064;2024-01-15T11:14:09;97283.38;;;12.91;71.83
83691;BME280;73671;43.220;0.064;2024-01-15T11:16:55;97294.03;;;12.89;71.47
83691;BME280;73671;43.220;0.064;2024-01-15T11:19:36;97282.16;;;12.92;71.34
83691;BME280;73671;43.220;0.064;2024-01-15T11:22:02;97275.00;;;12.95;71.69
83691;BME280;73671;43.220;0.064;2024-01-15T11:24:39;97273.31;;;12.98;72.29
83691;BME280;73671;43.220;0.064;2024-01-15T11:27:07;97258.06;;;13.06;72.81
83691;BME280;73671;43.220;0.064;2024-01-15T11:29:33;97266.75;;;13.19;72.17
83691;BME280;73671;43.220;0.064;2024-01-15T11:32:07;97254.81;;;13.31;72.34
83691;BME280;73671;43.220;0.064;2024-01-15T11:34:58;97250.19;;;13.38;71.94
83691;BME280;73671;43.220;0.064;2024-01-15T11:37:25;97257.28;;;13.44;71.97
83691;BME280;73671;43.220;0.064;2024-01-15T11:40:02;97254.81;;;13.46;72.29
83691;BME280;73671;43.220;0.064;2024-01-15T11:42:29;97259.84;;;13.48;72.13
83691;BME280;73671;43.220;0.064;2024-01-15T11:44:54;97262.06;;;13.49;72.45
83691;BME280;73671;43.220;0.064;2024-01-15T11:47:41;97264.06;;;13.49;71.75
83691;BME280;73671;43.220;0.064;2024-01-15T11:50:17;97257.66;;;13.52;71.75
83691;BME280;73671;43.220;0.064;2024-01-15T11:52:46;97251.50;;;13.57;71.61
83691;BME280;73671;43.220;0.064;2024-01-15T11:57:50;97248.28;;;13.73;71.43
83691;BME280;73671;43.220;0.064;2024-01-15T12:00:16;97249.41;;;13.82;71.02
83691;BME280;73671;43.220;0.064;2024-01-15T12:02:43;97242.25;;;13.84;71.16
83691;BME280;73671;43.220;0.064;2024-01-15T12:05:10;97248.00;;;13.86;71.13
83691;BME280;73671;43.220;0.064;2024-01-15T12:07:38;97243.75;;;13.85;71.35
83691;BME280;73671;43.220;0.064;2024-01-15T12:10:08;97244.50;;;13.86;71.14
83691;BME280;73671;43.220;0.064;2024-01-15T12:15:02;97237.53;;;13.85;71.22
83691;BME280;73671;43.220;0.064;2024-01-15T12:17:27;97241.50;;;13.84;71.05
83691;BME280;73671;43.220;0.064;2024-01-15T12:19:52;97238.47;;;13.82;71.17
83691;BME280;73671;43.220;0.064;2024-01-15T12:22:18;97230.72;;;13.80;70.92
83691;BME280;73671;43.220;0.064;2024-01-15T12:24:44;97230.00;;;13.79;71.24
83691;BME280;73671;43.220;0.064;2024-01-15T12:27:10;97240.94;;;13.79;71.17
83691;BME280;73671;43.220;0.064;2024-01-15T12:29:35;97235.94;;;13.78;71.35
83691;BME280;73671;43.220;0.064;2024-01-15T12:32:01;97230.94;;;13.76;71.22
83691;BME280;73671;43.220;0.064;2024-01-15T12:34:29;97238.59;;;13.72;71.15
83691;BME280;73671;43.220;0.064;2024-01-15T12:36:57;97236.97;;;13.66;71.38
83691;BME280;73671;43.220;0.064;2024-01-15T12:39:22;97245.84;;;13.61;71.41
83691;BME280;73671;43.220;0.064;2024-01-15T12:41:48;97239.06;;;13.56;71.70
83691;BME280;73671;43.220;0.064;2024-01-15T12:44:13;97240.03;;;13.53;71.93
83691;BME280;73671;43.220;0.064;2024-01-15T12:46:38;97248.31;;;13.44;71.74
83691;BME280;73671;43.220;0.064;2024-01-15T12:49:04;97251.44;;;13.36;72.10
83691;BME280;73671;43.220;0.064;2024-01-15T12:51:30;97256.03;;;13.30;72.47
83691;BME280;73671;43.220;0.064;2024-01-15T12:53:55;97247.91;;;13.21;72.17
83691;BME280;73671;43.220;0.064;2024-01-15T12:56:20;97243.38;;;13.18;72.29
83691;BME280;73671;43.220;0.064;2024-01-15T12:58:46;97249.78;;;13.15;72.50
83691;BME280;73671;43.220;0.064;2024-01-15T13:01:12;97255.91;;;13.10;72.73
83691;BME280;73671;43.220;0.064;2024-01-15T13:03:37;97249.28;;;13.02;73.29